Harrisburg International Airport
KMDT : rendu visible

Aérodrome :











RETROUVEZ-NOUS SUR...

 
LOGIN :

S'inscrire | Disclaimer

   EN    FR    IT 

 









Légende :    VFR   VFR Marginal   IFR   IFR Intensif   IFR Très Intensif
Visi : 
Plafond : 
>= 8 km
>= 3000ft
5 à 8 km
1000 à 3000 ft
1500m à 5 km
500 à 1000 ft
800 à 1500m
200 à 500 ft
< 800m
< 200 ft
Symboles :   Orages  Brouillard  Fortes neiges  Fortes précipitations  Vent > 20 kt






- Altitude de l'aérodrome : 310 ft
- Code IATA : MDT


KMDT - Harrisburg International

DERNIER METAR :
  • 190156Z 16007KT 130V190 10SM OVC010 02/M01 A2983 RMK AO2 SLP106 I1003 T00171011 $

METARs EXPIRÉS :
  • 190056Z 15007KT 110V190 10SM OVC012 01/M02 A2987 RMK AO2 RAB24E36PLE24 PRESFR SLP120 P0000 I1002 T00111017 $
  • 190030Z 13003KT 7SM -RA OVC013 01/M02 A2991 RMK AO2 RAB24PLE24 P0000 I1001 T00061022 $
  • 182356Z VRB05KT 10SM -PL OVC013 01/M02 A2992 RMK AO2 SLP137 P0000 60027 I6005 T00061022 10006 21022 56048 $
  • 182320Z 15006KT 10SM -PL OVC014 00/M03 A2995 RMK AO2 P0000 T00001028 $

TAF KMDT
Valide du 19 à 02h jusqu'au 20 à 00h UTC


190132Z 1902/1924 15008G19KT P6SM OVC012
FM190400 22012G17KT 3SM BR OVC015
FM190700 27013G20KT 5SM BR OVC035
FM191300 29015G25KT 6SM BR BKN040



MET'MAP, la Météo Aéronautique d'un coup d'oeil ! - Copyright ORBIFLY Décembre 2007 - Disclaimer

ORBIFLY MET'MAP TEAM :

Programmation & Développement : Alexandra Zaïnal
Sur une idée originale de : Baudouin d'Aumeries
Assistance à la programmation : Marc-Olivier Méhu
Soutien technique & logistique : Manuel Goepfert

Contact : metmap@orbifly.com




SOURCES & CREDITS :

   NOAA       Earth
Advisory